Time;durP1;ratioP1;P1;durP2;ratioP2;P2;SDS_P1;SDS_P2;PMS_P1;PMS_P2;Temp;Humidity;BMP_temperature;BMP_pressure;BME280_temperature;BME280_humidity;BME280_pressure;Samples;Min_cycle;Max_cycle;Signal;HPM_P1;HPM_P2
2022/01/11 00:01:26;;;;;;;22.37;17.48;;;;;;;4.89;56.61;101868.47;1662805;85;21494;-52
2022/01/11 00:03:53;;;;;;;21.15;16.73;;;;;;;4.89;56.54;101880.08;1671494;84;21502;-52
2022/01/11 00:06:30;;;;;;;22.42;16.48;;;;;;;4.91;56.58;101881.39;1665656;84;21528;-52
2022/01/11 00:08:50;;;;;;;21.50;15.98;;;;;;;4.93;56.68;101877.13;1673173;84;21093;-52
2022/01/11 00:11:17;;;;;;;21.12;15.98;;;;;;;4.91;56.42;101877.11;1676467;84;21089;-52
2022/01/11 00:13:43;;;;;;;20.20;15.48;;;;;;;4.92;56.64;101881.41;1667339;85;21105;-52
2022/01/11 00:16:13;;;;;;;17.82;14.45;;;;;;;4.93;56.55;101875.42;1685498;84;20982;-52
2022/01/11 00:18:39;;;;;;;22.62;16.12;;;;;;;4.93;56.49;101885.74;1662094;84;21088;-53
2022/01/11 00:21:06;;;;;;;22.22;15.95;;;;;;;4.91;56.49;101884.84;1669677;83;21079;-52
2022/01/11 00:25:59;;;;;;;19.57;15.70;;;;;;;4.87;56.23;101889.91;1679014;83;21140;-52
2022/01/11 00:28:26;;;;;;;22.52;16.80;;;;;;;4.85;56.47;101891.18;1685570;83;21007;-54
2022/01/11 00:30:57;;;;;;;20.75;15.58;;;;;;;4.83;56.33;101894.14;1685771;83;21053;-52
2022/01/11 00:33:37;;;;;;;22.82;16.82;;;;;;;4.83;56.62;101899.72;1695237;83;21042;-52
2022/01/11 00:36:00;;;;;;;20.75;16.00;;;;;;;4.83;56.50;101894.14;1680022;83;21530;-52
2022/01/11 00:38:39;;;;;;;20.88;16.27;;;;;;;4.78;56.22;101890.59;1682011;84;21101;-52
2022/01/11 00:41:10;;;;;;;21.10;16.52;;;;;;;4.78;56.73;101902.64;1679870;84;21077;-52
2022/01/11 00:43:38;;;;;;;24.35;15.70;;;;;;;4.76;56.48;101895.30;1681062;83;21025;-52
2022/01/11 00:46:05;;;;;;;20.92;15.43;;;;;;;4.74;56.66;101891.37;1704135;83;21074;-52
2022/01/11 00:48:35;;;;;;;22.98;16.05;;;;;;;4.74;57.00;101883.64;1682568;83;21009;-53
2022/01/11 00:51:02;;;;;;;21.85;15.72;;;;;;;4.75;56.99;101887.97;1678160;83;21002;-53
2022/01/11 00:53:29;;;;;;;23.62;16.93;;;;;;;4.75;56.83;101898.70;1674474;83;21116;-53
2022/01/11 00:55:55;;;;;;;24.47;17.25;;;;;;;4.74;57.01;101896.53;1703137;82;21058;-52
2022/01/11 00:58:22;;;;;;;19.80;16.05;;;;;;;4.76;57.05;101889.70;1692756;83;21022;-52
2022/01/11 01:00:49;;;;;;;22.85;17.17;;;;;;;4.74;56.83;101897.82;1682897;83;21093;-52
2022/01/11 01:03:16;;;;;;;24.35;16.73;;;;;;;4.72;57.01;101903.78;1685615;83;21521;-52
2022/01/11 01:05:42;;;;;;;26.68;18.25;;;;;;;4.71;57.13;101902.94;1689466;83;21841;-52
2022/01/11 01:08:09;;;;;;;23.87;17.02;;;;;;;4.70;57.02;101901.17;1688681;82;21018;-52
2022/01/11 01:10:46;;;;;;;26.27;17.05;;;;;;;4.66;57.06;101895.52;1707754;83;21312;-52
2022/01/11 01:13:17;;;;;;;23.62;17.82;;;;;;;4.64;56.90;101898.89;1683025;83;21018;-52
2022/01/11 01:15:47;;;;;;;22.00;16.23;;;;;;;4.60;57.22;101905.70;1685748;83;21002;-52
2022/01/11 01:18:20;;;;;;;23.00;16.35;;;;;;;4.57;57.49;101900.50;1674880;83;21082;-52
2022/01/11 01:20:47;;;;;;;22.32;17.62;;;;;;;4.57;57.56;101897.92;1684200;83;21049;-51
2022/01/11 01:23:14;;;;;;;25.30;17.27;;;;;;;4.57;57.41;101903.08;1679772;83;21082;-52
2022/01/11 01:25:44;;;;;;;24.05;17.82;;;;;;;4.58;57.49;101907.79;1680742;83;21054;-52
2022/01/11 01:28:10;;;;;;;23.65;17.57;;;;;;;4.58;57.31;101907.38;1690491;83;21010;-52
2022/01/11 01:30:37;;;;;;;24.32;17.40;;;;;;;4.57;57.12;101912.09;1685430;83;21131;-53
2022/01/11 01:33:04;;;;;;;25.65;17.90;;;;;;;4.55;57.21;101915.47;1687866;83;21102;-52
2022/01/11 01:35:39;;;;;;;23.57;17.60;;;;;;;4.52;56.95;101915.39;1706442;83;21140;-52
2022/01/11 01:38:01;;;;;;;25.27;17.62;;;;;;;4.47;57.06;101928.62;1682608;83;21078;-52
2022/01/11 01:40:35;;;;;;;24.23;17.65;;;;;;;4.43;57.25;101919.92;1690555;83;21037;-52
2022/01/11 01:42:56;;;;;;;24.98;17.23;;;;;;;4.45;57.09;101931.14;1676390;83;21556;-52
2022/01/11 01:45:24;;;;;;;26.40;17.67;;;;;;;4.44;57.30;101924.27;1676589;83;21057;-52
2022/01/11 01:47:56;;;;;;;24.85;17.55;;;;;;;4.42;57.29;101923.36;1683675;83;21494;-52
2022/01/11 01:50:18;;;;;;;26.20;17.82;;;;;;;4.42;57.37;101933.67;1682763;83;21042;-53
2022/01/11 01:52:45;;;;;;;25.77;17.77;;;;;;;4.41;57.21;101929.33;1692415;83;21077;-53
2022/01/11 01:55:11;;;;;;;25.27;17.02;;;;;;;4.40;57.39;101929.31;1690672;83;21081;-52
2022/01/11 01:57:38;;;;;;;24.27;17.23;;;;;;;4.38;57.41;101931.86;1691193;83;21058;-52
2022/01/11 02:00:11;;;;;;;21.33;16.40;;;;;;;4.38;57.62;101930.98;1688626;83;21057;-52
2022/01/11 02:02:37;;;;;;;21.97;15.50;;;;;;;4.40;57.44;101935.34;1680466;83;21577;-52
2022/01/11 02:05:06;;;;;;;21.37;15.90;;;;;;;4.40;57.33;101922.45;1685277;83;21010;-54
2022/01/11 02:07:34;;;;;;;22.65;16.25;;;;;;;4.38;56.85;101915.11;1681222;83;21066;-52
2022/01/11 02:10:01;;;;;;;23.30;15.88;;;;;;;4.36;56.72;101921.94;1677703;83;21027;-53
2022/01/11 02:12:28;;;;;;;21.48;15.50;;;;;;;4.33;56.75;101928.74;1705251;83;21112;-52
2022/01/11 02:14:55;;;;;;;21.57;16.37;;;;;;;4.32;56.97;101926.58;1684947;83;21038;-52
2022/01/11 02:17:21;;;;;;;26.45;16.73;;;;;;;4.30;56.97;101924.80;1692359;83;21053;-52
2022/01/11 02:19:48;;;;;;;25.52;18.67;;;;;;;4.28;56.92;101922.19;1688055;83;20991;-52
2022/01/11 02:22:15;;;;;;;27.50;18.07;;;;;;;4.28;57.28;101940.23;1697331;83;21038;-52
2022/01/11 02:24:42;;;;;;;27.55;19.50;;;;;;;4.28;57.46;101941.52;1683477;83;21014;-52
2022/01/11 02:27:09;;;;;;;28.62;19.48;;;;;;;4.26;57.41;101932.88;1683763;83;21840;-53
2022/01/11 02:29:36;;;;;;;26.87;18.10;;;;;;;4.24;57.36;101936.25;1672857;83;21589;-52
2022/01/11 02:32:04;;;;;;;27.15;17.87;;;;;;;4.20;57.38;101937.90;1701644;83;21050;-52
2022/01/11 02:34:31;;;;;;;25.43;16.87;;;;;;;4.17;57.43;101935.23;1690338;83;21033;-52
2022/01/11 02:37:05;;;;;;;23.75;17.23;;;;;;;4.13;57.27;101937.29;1690264;83;21732;-53
2022/01/11 02:39:34;;;;;;;25.05;17.82;;;;;;;4.12;57.38;101950.58;1687413;83;21026;-52
2022/01/11 02:42:11;;;;;;;25.43;17.12;;;;;;;4.12;57.43;101951.02;1701813;83;21050;-52
2022/01/11 02:44:39;;;;;;;23.60;16.48;;;;;;;4.13;57.35;101945.02;1684889;83;21007;-52
2022/01/11 02:47:07;;;;;;;20.77;15.63;;;;;;;4.14;57.25;101949.35;1689935;83;21002;-52
2022/01/11 02:49:36;;;;;;;20.75;15.63;;;;;;;4.13;57.03;101951.05;1677754;84;21006;-52
2022/01/11 02:52:10;;;;;;;17.60;13.38;;;;;;;4.13;57.08;101952.75;1693609;83;21649;-52
2022/01/11 02:54:38;;;;;;;15.80;12.03;;;;;;;4.08;56.14;101971.10;1688284;83;21078;-52
2022/01/11 02:57:13;;;;;;;16.55;12.07;;;;;;;4.03;55.39;101968.82;1680815;82;21007;-51
2022/01/11 02:59:39;;;;;;;13.60;10.28;;;;;;;3.99;55.59;101985.91;1698973;83;21527;-52
2022/01/11 03:02:06;;;;;;;14.45;11.80;;;;;;;3.96;55.10;101984.94;1689316;83;21085;-53
2022/01/11 03:04:33;;;;;;;15.60;11.38;;;;;;;3.92;55.16;101979.27;1702158;83;21550;-52
2022/01/11 03:07:00;;;;;;;16.97;12.20;;;;;;;3.87;54.99;101979.59;1697653;83;21557;-52
2022/01/11 03:09:35;;;;;;;13.10;10.05;;;;;;;3.83;55.12;101975.20;1685992;83;21077;-51
2022/01/11 03:11:57;;;;;;;13.10;10.68;;;;;;;3.80;55.15;101982.42;1678645;83;21547;-52
2022/01/11 03:14:24;;;;;;;12.25;9.88;;;;;;;3.75;54.92;101980.58;1690234;83;21112;-52
2022/01/11 03:16:51;;;;;;;13.85;10.18;;;;;;;3.71;55.28;101990.34;1702072;83;21065;-51
2022/01/11 03:19:18;;;;;;;15.10;10.08;;;;;;;3.65;55.00;101984.59;1708634;83;21065;-52
2022/01/11 03:21:44;;;;;;;12.85;9.85;;;;;;;3.63;55.10;101984.09;1682549;83;21543;-52
2022/01/11 03:24:12;;;;;;;11.18;9.33;;;;;;;3.60;55.14;101994.33;1657546;84;21035;-52
2022/01/11 03:26:40;;;;;;;12.93;10.28;;;;;;;3.58;54.98;101998.56;1686332;83;21089;-53
2022/01/11 03:29:06;;;;;;;11.48;9.45;;;;;;;3.55;54.92;101990.75;1689284;83;21026;-53
2022/01/11 03:31:36;;;;;;;12.20;9.28;;;;;;;3.51;55.00;101992.78;1680826;83;21046;-52
2022/01/11 03:34:03;;;;;;;11.28;8.90;;;;;;;3.49;55.08;101980.30;1692549;83;20991;-52
2022/01/11 03:36:31;;;;;;;11.28;9.43;;;;;;;3.48;55.38;101994.89;1683948;83;21069;-51
2022/01/11 03:38:58;;;;;;;12.60;9.48;;;;;;;3.49;55.48;101990.18;1681634;83;21027;-52
2022/01/11 03:41:25;;;;;;;10.70;8.73;;;;;;;3.48;55.24;101992.31;1670921;83;21021;-51
2022/01/11 03:43:51;;;;;;;14.33;9.00;;;;;;;3.48;55.19;101999.16;1694254;83;21100;-52
2022/01/11 03:46:20;;;;;;;11.55;9.55;;;;;;;3.46;55.15;102004.27;1689373;83;21530;-51
2022/01/11 03:48:47;;;;;;;10.38;8.88;;;;;;;3.44;55.09;101998.62;1700692;83;21543;-52
2022/01/11 03:51:14;;;;;;;11.05;9.00;;;;;;;3.42;55.06;102020.86;1681889;83;22414;-52
2022/01/11 03:56:22;;;;;;;11.18;9.05;;;;;;;3.40;55.28;102016.09;1629812;87;22187;-52
2022/01/11 03:58:51;;;;;;;11.85;8.63;;;;;;;3.42;55.60;102011.86;1634145;87;21548;-52
2022/01/11 04:01:17;;;;;;;11.08;8.85;;;;;;;3.46;55.20;102013.68;1634227;87;21547;-52
2022/01/11 04:03:46;;;;;;;10.93;9.03;;;;;;;3.47;55.65;102012.83;1630783;87;21075;-52
2022/01/11 04:06:16;;;;;;;12.70;8.88;;;;;;;3.48;55.66;102021.02;1641749;87;21550;-52
2022/01/11 04:08:45;;;;;;;12.18;8.90;;;;;;;3.49;55.27;102026.61;1634529;86;21198;-52
2022/01/11 04:11:12;;;;;;;11.95;8.40;;;;;;;3.48;55.57;102040.33;1633730;87;21023;-52
2022/01/11 04:13:39;;;;;;;12.82;8.98;;;;;;;3.50;55.62;102038.66;1633333;86;21081;-52
2022/01/11 04:16:06;;;;;;;11.18;8.93;;;;;;;3.48;55.02;102042.90;1614038;87;21543;-52
2022/01/11 04:18:33;;;;;;;12.35;9.25;;;;;;;3.45;55.21;102033.39;1636184;87;21159;-52
2022/01/11 04:21:00;;;;;;;10.72;9.15;;;;;;;3.45;55.25;102046.25;1627539;87;21101;-52
2022/01/11 04:23:27;;;;;;;13.18;9.25;;;;;;;3.43;55.14;102038.91;1635865;87;21087;-52
2022/01/11 04:25:54;;;;;;;10.35;8.60;;;;;;;3.40;55.24;102035.39;1630681;87;21603;-53
2022/01/11 04:28:23;;;;;;;11.93;9.38;;;;;;;3.38;55.20;102039.18;1635875;86;21031;-52
2022/01/11 04:30:50;;;;;;;11.48;9.18;;;;;;;3.37;55.29;102025.00;1631601;87;21117;-52
2022/01/11 04:33:17;;;;;;;11.35;9.10;;;;;;;3.32;54.89;102038.16;1632380;87;21507;-52
2022/01/11 04:35:48;;;;;;;11.43;9.18;;;;;;;3.32;55.41;102039.45;1625223;87;21030;-52
2022/01/11 04:38:12;;;;;;;12.00;9.23;;;;;;;3.30;55.51;102040.27;1624107;87;21593;-52
2022/01/11 04:40:39;;;;;;;9.98;8.48;;;;;;;3.27;55.82;102028.62;1629886;87;21016;-52
2022/01/11 04:43:05;;;;;;;11.35;9.70;;;;;;;3.24;55.50;102041.38;1635637;86;21014;-52
2022/01/11 04:45:32;;;;;;;16.15;9.45;;;;;;;3.23;55.46;102044.80;1635470;86;21031;-52
2022/01/11 04:47:58;;;;;;;12.80;9.55;;;;;;;3.21;55.94;102046.42;1629736;87;21152;-52
2022/01/11 04:50:26;;;;;;;11.78;9.13;;;;;;;3.19;55.98;102045.51;1634701;87;21033;-52
2022/01/11 04:52:53;;;;;;;13.83;10.32;;;;;;;3.19;55.49;102060.94;1677185;83;21534;-52
2022/01/11 04:55:20;;;;;;;13.55;10.20;;;;;;;3.19;55.88;102060.94;1687754;83;21582;-52
2022/01/11 04:57:47;;;;;;;14.28;10.58;;;;;;;3.19;55.55;102045.51;1686405;83;21051;-52
2022/01/11 05:00:15;;;;;;;14.07;10.40;;;;;;;3.20;56.05;102060.53;1683093;83;21058;-53
2022/01/11 05:02:41;;;;;;;14.87;10.65;;;;;;;3.23;56.56;102057.66;1692497;83;21080;-52
2022/01/11 05:05:08;;;;;;;15.68;11.65;;;;;;;3.26;56.03;102065.45;1700803;83;21049;-52
2022/01/11 05:07:36;;;;;;;14.05;11.75;;;;;;;3.25;55.63;102068.86;1704227;83;21631;-52
2022/01/11 05:10:05;;;;;;;14.20;11.88;;;;;;;3.24;55.64;102074.81;1686138;83;21541;-52
2022/01/11 05:12:32;;;;;;;14.58;11.88;;;;;;;3.24;55.62;102074.81;1691741;83;20991;-53
2022/01/11 05:14:58;;;;;;;14.45;11.28;;;;;;;3.25;55.88;102071.44;1678123;83;21028;-53
2022/01/11 05:17:25;;;;;;;13.65;11.08;;;;;;;3.25;55.61;102057.29;1685705;83;21046;-52
2022/01/11 05:19:51;;;;;;;15.03;11.48;;;;;;;3.20;55.77;102076.84;1687028;83;21025;-52
2022/01/11 05:22:19;;;;;;;14.25;11.22;;;;;;;3.15;55.45;102060.39;1709309;83;21026;-52
2022/01/11 05:24:45;;;;;;;13.90;11.48;;;;;;;3.15;55.72;102073.69;1686295;83;21029;-52
2022/01/11 05:27:14;;;;;;;13.93;11.03;;;;;;;3.14;55.72;102072.81;1699392;83;21081;-52
2022/01/11 05:29:40;;;;;;;13.20;10.82;;;;;;;3.13;56.06;102085.20;1693568;83;21113;-52
2022/01/11 05:32:08;;;;;;;15.60;11.30;;;;;;;3.14;56.18;102087.36;1676133;83;21093;-52
2022/01/11 05:34:35;;;;;;;15.23;12.07;;;;;;;3.11;55.63;102093.28;1674820;83;21538;-52
2022/01/11 05:37:03;;;;;;;14.05;11.50;;;;;;;3.09;55.88;102102.65;1690848;83;21058;-52
2022/01/11 05:39:29;;;;;;;15.25;11.85;;;;;;;3.09;55.96;102091.52;1697998;83;20991;-52
2022/01/11 05:41:56;;;;;;;14.58;12.05;;;;;;;3.05;55.55;102106.39;1695877;83;21578;-52
2022/01/11 05:44:22;;;;;;;16.57;12.37;;;;;;;3.03;55.93;102115.33;1696179;83;21525;-52
2022/01/11 05:46:49;;;;;;;16.25;12.78;;;;;;;3.02;55.65;102117.45;1677737;83;21558;-52
2022/01/11 05:49:16;;;;;;;16.25;12.13;;;;;;;3.01;56.07;102116.98;1686454;83;21557;-52
2022/01/11 05:51:43;;;;;;;15.05;12.37;;;;;;;3.02;55.96;102123.88;1685834;83;21021;-52
2022/01/11 05:54:09;;;;;;;17.05;12.28;;;;;;;3.03;56.26;102123.04;1680091;83;21074;-52
2022/01/11 05:56:36;;;;;;;15.63;12.30;;;;;;;3.01;56.40;102129.84;1686057;83;21101;-52
2022/01/11 05:59:03;;;;;;;13.72;11.40;;;;;;;3.04;56.23;102142.80;1684401;83;21495;-52
2022/01/11 06:01:30;;;;;;;13.50;11.33;;;;;;;3.01;56.03;102154.27;1689031;83;21632;-52
2022/01/11 06:03:57;;;;;;;14.78;11.75;;;;;;;2.97;56.06;102146.00;1693069;83;21506;-52
2022/01/11 06:06:24;;;;;;;15.43;10.90;;;;;;;2.95;56.13;102157.93;1684865;83;21490;-53
2022/01/11 06:08:51;;;;;;;13.08;10.90;;;;;;;2.95;56.55;102168.22;1694560;83;21113;-52
2022/01/11 06:11:18;;;;;;;13.48;10.60;;;;;;;2.96;56.28;102173.84;1692345;83;21015;-52
2022/01/11 06:13:50;;;;;;;12.73;9.83;;;;;;;2.92;55.59;102179.70;1697183;83;21086;-53
2022/01/11 06:16:16;;;;;;;15.53;10.10;;;;;;;2.89;56.39;102186.02;1692247;83;21053;-52
2022/01/11 06:18:45;;;;;;;11.95;10.08;;;;;;;2.90;56.42;102190.36;1701399;83;21112;-52
2022/01/11 06:21:16;;;;;;;12.37;10.23;;;;;;;2.87;56.39;102194.09;1634516;86;21075;-52
2022/01/11 06:23:43;;;;;;;12.35;8.83;;;;;;;2.82;56.26;102194.38;1625331;87;21116;-52
2022/01/11 06:26:10;;;;;;;13.10;10.13;;;;;;;2.80;56.41;102196.03;1641539;86;21514;-52
2022/01/11 06:28:38;;;;;;;14.63;10.03;;;;;;;2.76;56.15;102210.86;1636760;87;21059;-52
2022/01/11 06:31:06;;;;;;;12.85;10.00;;;;;;;2.74;56.16;102198.37;1637370;86;21535;-52
2022/01/11 06:33:33;;;;;;;15.48;10.08;;;;;;;2.70;56.14;102206.80;1634778;86;21537;-52
2022/01/11 06:36:00;;;;;;;15.20;9.75;;;;;;;2.68;56.19;102211.02;1641518;86;21594;-53
2022/01/11 06:38:26;;;;;;;12.05;9.33;;;;;;;2.68;56.58;102203.74;1634928;86;21067;-52
2022/01/11 06:40:54;;;;;;;13.50;10.15;;;;;;;2.70;56.35;102219.66;1643526;85;21542;-52
2022/01/11 06:43:21;;;;;;;12.20;9.30;;;;;;;2.70;56.67;102217.08;1636705;86;21034;-52
2022/01/11 06:45:48;;;;;;;11.55;9.10;;;;;;;2.69;56.45;102219.20;1636143;86;21007;-53
2022/01/11 06:48:16;;;;;;;12.07;9.75;;;;;;;2.71;56.67;102226.55;1641905;86;21086;-52
2022/01/11 06:50:43;;;;;;;11.18;8.75;;;;;;;2.71;56.98;102233.38;1633852;86;21029;-52
2022/01/11 06:53:10;;;;;;;9.58;7.60;;;;;;;2.70;56.34;102228.64;1640910;86;21176;-52
2022/01/11 06:55:39;;;;;;;9.53;7.03;;;;;;;2.67;55.40;102234.98;1634031;86;21078;-52
2022/01/11 06:58:07;;;;;;;10.20;6.22;;;;;;;2.57;54.70;102236.78;1633932;86;21049;-54
2022/01/11 07:00:35;;;;;;;8.33;6.50;;;;;;;2.49;54.44;102247.22;1638423;87;21110;-51
2022/01/11 07:03:03;;;;;;;8.43;6.08;;;;;;;2.44;54.64;102252.59;1637991;86;21037;-52
2022/01/11 07:05:47;;;;;;;8.38;6.67;;;;;;;2.41;54.69;102255.07;1638796;85;21042;-51
2022/01/11 07:08:14;;;;;;;8.58;7.08;;;;;;;2.34;54.96;102264.66;1654888;86;21086;-54
2022/01/11 07:10:43;;;;;;;8.98;6.97;;;;;;;2.31;54.86;102259.39;1654314;85;21041;-51
2022/01/11 07:13:10;;;;;;;8.80;6.80;;;;;;;2.29;55.33;102265.77;1689310;83;21006;-51
2022/01/11 07:15:37;;;;;;;7.92;6.83;;;;;;;2.29;55.02;102259.34;1692054;83;21049;-54
2022/01/11 07:18:09;;;;;;;8.53;7.35;;;;;;;2.27;55.18;102252.39;1702784;83;21090;-54
2022/01/11 07:20:35;;;;;;;9.40;7.42;;;;;;;2.28;55.66;102251.59;1685196;83;21036;-52
2022/01/11 07:23:02;;;;;;;11.88;7.53;;;;;;;2.31;55.89;102249.11;1683236;83;21018;-52
2022/01/11 07:25:30;;;;;;;10.28;7.58;;;;;;;2.33;55.75;102241.05;1697567;83;21042;-52
2022/01/11 07:27:57;;;;;;;8.48;6.78;;;;;;;2.34;55.70;102241.53;1676916;83;21077;-51
2022/01/11 07:30:24;;;;;;;10.72;7.12;;;;;;;2.31;54.79;102242.70;1680486;83;21014;-52
2022/01/11 07:32:51;;;;;;;8.10;7.08;;;;;;;2.31;54.98;102243.58;1710590;83;21486;-52
2022/01/11 07:35:18;;;;;;;8.85;7.30;;;;;;;2.32;55.60;102244.06;1690877;83;21058;-52
2022/01/11 07:37:44;;;;;;;12.20;8.15;;;;;;;2.35;55.98;102248.41;1704897;83;21026;-51
2022/01/11 07:40:13;;;;;;;9.53;7.35;;;;;;;2.37;55.78;102259.64;1689683;83;21034;-51
2022/01/11 07:42:40;;;;;;;10.20;7.90;;;;;;;2.37;55.73;102248.08;1686908;83;21577;-52
2022/01/11 07:45:09;;;;;;;10.20;8.53;;;;;;;2.37;55.59;102267.34;1681796;84;21069;-52
2022/01/11 07:47:36;;;;;;;10.10;8.43;;;;;;;2.38;55.84;102258.80;1690980;84;21558;-51
2022/01/11 07:50:06;;;;;;;9.75;8.15;;;;;;;2.36;55.52;102256.19;1677919;84;21026;-52
2022/01/11 07:52:33;;;;;;;10.25;7.75;;;;;;;2.35;56.16;102248.41;1691746;84;20989;-52
2022/01/11 07:55:02;;;;;;;10.70;8.38;;;;;;;2.36;55.95;102245.03;1679236;85;21502;-52
2022/01/11 07:57:29;;;;;;;10.10;8.08;;;;;;;2.34;55.74;102260.39;1666867;85;21175;-52
2022/01/11 07:59:57;;;;;;;11.63;7.87;;;;;;;2.33;55.47;102256.47;1666016;84;21089;-52
2022/01/11 08:02:26;;;;;;;9.28;7.90;;;;;;;2.29;55.13;102266.17;1686952;84;21574;-52
2022/01/11 08:04:54;;;;;;;8.20;7.15;;;;;;;2.28;55.07;102265.31;1686358;84;21055;-51
2022/01/11 08:07:21;;;;;;;10.63;8.25;;;;;;;2.24;54.88;102275.42;1687156;84;21119;-51
2022/01/11 08:09:49;;;;;;;9.13;7.50;;;;;;;2.19;54.70;102259.84;1683095;84;21032;-51
2022/01/11 08:12:16;;;;;;;10.40;8.30;;;;;;;2.16;54.50;102262.72;1692068;84;21081;-51
2022/01/11 08:14:43;;;;;;;10.03;6.80;;;;;;;2.11;54.28;102252.67;1689061;84;21049;-51
2022/01/11 08:17:10;;;;;;;8.43;7.08;;;;;;;2.10;54.22;102256.92;1689968;85;21566;-51
2022/01/11 08:19:39;;;;;;;7.97;6.83;;;;;;;2.07;54.26;102252.10;1693352;84;21581;-54
2022/01/11 08:22:05;;;;;;;8.25;6.35;;;;;;;2.08;54.36;102265.42;1702233;83;21542;-53
2022/01/11 08:24:34;;;;;;;8.00;6.78;;;;;;;2.10;54.78;102270.20;1670810;83;21038;-53
2022/01/11 08:27:00;;;;;;;7.62;6.60;;;;;;;2.15;55.02;102280.20;1704462;83;21034;-54
2022/01/11 08:29:27;;;;;;;11.63;6.83;;;;;;;2.19;55.13;102279.50;1682068;83;21033;-53
2022/01/11 08:31:56;;;;;;;6.85;5.75;;;;;;;2.22;54.89;102286.05;1697787;83;21624;-53
2022/01/11 08:34:23;;;;;;;6.87;5.05;;;;;;;2.25;54.61;102277.16;1683646;83;21024;-52
2022/01/11 08:36:50;;;;;;;6.58;5.55;;;;;;;2.25;54.27;102287.42;1699008;83;21463;-53
2022/01/11 08:39:17;;;;;;;7.58;5.17;;;;;;;2.27;53.94;102276.80;1684763;83;21463;-53
2022/01/11 08:41:44;;;;;;;7.22;5.25;;;;;;;2.26;53.48;102290.47;1678932;83;21531;-52
2022/01/11 08:44:11;;;;;;;5.92;5.35;;;;;;;2.22;53.29;102267.67;1680158;83;21543;-53
2022/01/11 08:46:40;;;;;;;7.08;5.17;;;;;;;2.20;53.62;102279.98;1679705;83;20987;-54
2022/01/11 08:49:10;;;;;;;7.47;5.90;;;;;;;2.20;53.74;102282.55;1686450;83;21101;-52
2022/01/11 08:51:36;;;;;;;5.75;5.10;;;;;;;2.19;53.57;102297.48;1683796;83;21096;-53
2022/01/11 08:54:04;;;;;;;6.42;5.22;;;;;;;2.21;53.84;102288.13;1684838;83;20984;-53
2022/01/11 08:56:32;;;;;;;6.50;5.30;;;;;;;2.23;53.71;102305.36;1683291;83;21069;-53
2022/01/11 08:58:59;;;;;;;6.55;5.22;;;;;;;2.25;53.36;102298.98;1694779;83;21006;-53
2022/01/11 09:01:28;;;;;;;8.60;5.35;;;;;;;2.27;52.98;102306.33;1700800;83;21553;-53
2022/01/11 09:03:55;;;;;;;5.28;4.60;;;;;;;2.26;52.99;102303.31;1684761;83;21089;-53
2022/01/11 09:06:22;;;;;;;8.23;5.22;;;;;;;2.26;53.03;102304.59;1688146;83;21100;-53
2022/01/11 09:08:50;;;;;;;7.42;5.33;;;;;;;2.26;53.54;102302.03;1695973;83;21504;-54
2022/01/11 09:11:16;;;;;;;6.92;5.00;;;;;;;2.26;53.13;102304.59;1687064;83;21070;-53
2022/01/11 09:13:44;;;;;;;7.45;4.80;;;;;;;2.27;52.76;102296.94;1680754;83;21055;-51
2022/01/11 09:16:11;;;;;;;5.80;5.00;;;;;;;2.26;52.55;102296.89;1685137;83;21573;-51
2022/01/11 09:18:39;;;;;;;5.55;4.83;;;;;;;2.24;52.22;102301.10;1679108;84;21023;-52
2022/01/11 09:21:07;;;;;;;5.78;5.17;;;;;;;2.24;52.34;102294.69;1670489;83;21010;-52
2022/01/11 09:23:35;;;;;;;5.85;5.05;;;;;;;2.25;52.56;102283.57;1695257;82;21069;-52
2022/01/11 09:26:02;;;;;;;6.17;5.00;;;;;;;2.27;52.38;102303.77;1691578;83;21078;-53
2022/01/11 09:28:30;;;;;;;5.85;4.80;;;;;;;2.27;52.65;102298.63;1679997;83;21047;-52
2022/01/11 09:30:57;;;;;;;6.87;4.60;;;;;;;2.26;52.63;102307.17;1683104;83;21074;-52
2022/01/11 09:33:23;;;;;;;7.28;5.10;;;;;;;2.25;52.23;102304.12;1679137;83;20990;-53
2022/01/11 09:35:52;;;;;;;7.10;5.20;;;;;;;2.24;52.23;102306.23;1701178;83;21022;-52
2022/01/11 09:38:22;;;;;;;6.85;5.28;;;;;;;2.23;52.27;102294.20;1688666;83;21068;-52
2022/01/11 09:40:51;;;;;;;6.72;5.67;;;;;;;2.23;52.57;102292.91;1684603;83;21070;-52
2022/01/11 09:43:22;;;;;;;6.47;5.12;;;;;;;2.26;52.85;102304.59;1683411;83;21617;-52
2022/01/11 09:45:51;;;;;;;5.22;4.55;;;;;;;2.25;52.41;102294.73;1685085;84;21069;-52
2022/01/11 09:48:22;;;;;;;9.25;5.12;;;;;;;2.27;52.14;102305.05;1677400;83;21688;-51
2022/01/11 09:50:48;;;;;;;7.22;5.78;;;;;;;2.25;51.77;102295.13;1692824;83;21038;-52
2022/01/11 09:53:15;;;;;;;8.40;5.40;;;;;;;2.25;52.17;102292.56;1680082;83;21029;-52
2022/01/11 09:55:44;;;;;;;12.15;7.28;;;;;;;2.24;52.03;102293.39;1679979;83;21467;-53
2022/01/11 09:58:12;;;;;;;10.50;7.85;;;;;;;2.23;52.04;102295.48;1668825;83;21106;-52
2022/01/11 10:00:52;;;;;;;9.03;6.87;;;;;;;2.23;52.21;102281.36;1686041;83;21090;-51
2022/01/11 10:03:20;;;;;;;6.03;5.03;;;;;;;2.23;52.28;102283.92;1679029;83;21030;-52
2022/01/11 10:05:49;;;;;;;5.58;4.55;;;;;;;2.22;52.32;102282.20;1680235;84;21057;-52
2022/01/11 10:08:27;;;;;;;6.42;5.62;;;;;;;2.20;52.26;102279.98;1681435;84;21007;-52
2022/01/11 10:10:57;;;;;;;11.22;8.45;;;;;;;2.19;52.41;102289.77;1681587;84;21041;-52
2022/01/11 10:13:41;;;;;;;11.08;7.97;;;;;;;2.17;52.30;102288.84;1681502;84;21038;-53
2022/01/11 10:16:27;;;;;;;7.50;5.87;;;;;;;2.18;52.48;102289.33;1652592;86;21084;-52
2022/01/11 10:18:55;;;;;;;6.30;5.12;;;;;;;2.17;52.43;102282.42;1646855;86;21050;-53
2022/01/11 10:21:39;;;;;;;8.38;5.25;;;;;;;2.17;52.31;102298.72;1630004;86;21129;-53
2022/01/11 10:24:23;;;;;;;5.87;4.37;;;;;;;2.18;52.21;102286.76;1586433;90;21019;-52
2022/01/11 10:26:53;;;;;;;5.78;5.12;;;;;;;2.17;51.95;102285.88;1584137;90;21635;-52
2022/01/11 10:29:46;;;;;;;5.87;5.22;;;;;;;2.19;51.90;102285.92;1568852;90;21110;-53
2022/01/11 10:32:27;;;;;;;8.43;5.75;;;;;;;2.21;52.41;102291.98;1552252;91;21086;-52
2022/01/11 10:35:00;;;;;;;6.37;5.62;;;;;;;2.22;52.19;102296.32;1552210;92;21098;-52
2022/01/11 10:37:33;;;;;;;10.25;6.30;;;;;;;2.19;51.74;102291.06;1534532;91;21052;-53
2022/01/11 10:40:19;;;;;;;7.45;5.70;;;;;;;2.20;51.72;102283.44;1529059;93;21121;-52
2022/01/11 10:42:51;;;;;;;8.30;6.53;;;;;;;2.19;51.65;102274.36;1526243;92;21071;-52
2022/01/11 10:45:29;;;;;;;7.17;6.17;;;;;;;2.19;51.20;102282.06;1509231;93;21127;-52
2022/01/11 10:47:58;;;;;;;7.08;5.40;;;;;;;2.21;51.51;102276.17;1524935;93;21112;-52
2022/01/11 10:50:30;;;;;;;6.50;5.45;;;;;;;2.25;51.40;102284.45;1514339;93;21111;-52
2022/01/11 10:52:59;;;;;;;6.15;5.08;;;;;;;2.24;51.36;102279.27;1506227;93;21661;-53
2022/01/11 10:55:29;;;;;;;7.08;5.90;;;;;;;2.25;51.75;102282.29;1506984;93;21057;-52
2022/01/11 10:57:59;;;;;;;7.45;6.40;;;;;;;2.25;51.92;102291.27;1523598;93;21157;-52
2022/01/11 11:00:39;;;;;;;5.58;5.00;;;;;;;2.29;51.79;102291.85;1512736;93;21057;-52
2022/01/11 11:03:15;;;;;;;4.83;4.33;;;;;;;2.29;51.49;102289.28;1533836;92;21614;-52
2022/01/11 11:05:58;;;;;;;5.45;4.53;;;;;;;2.31;51.21;102295.34;1531492;92;21912;-52
2022/01/11 11:08:33;;;;;;;6.97;4.72;;;;;;;2.36;51.30;102291.27;1513155;94;21173;-52
2022/01/11 11:11:08;;;;;;;5.20;4.28;;;;;;;2.37;50.88;102296.88;1510662;94;21064;-52
2022/01/11 11:13:40;;;;;;;7.85;4.83;;;;;;;2.38;50.89;102299.90;1411641;98;21203;-52
2022/01/11 11:16:22;;;;;;;5.97;5.22;;;;;;;2.34;50.76;102304.46;1379120;100;21147;-52
2022/01/11 11:18:57;;;;;;;6.30;4.85;;;;;;;2.31;50.71;102310.76;1403102;101;21618;-52
2022/01/11 11:21:38;;;;;;;5.70;5.05;;;;;;;2.29;50.74;102304.69;1417472;98;21123;-52
2022/01/11 11:26:49;;;;;;;4.92;4.37;;;;;;;2.26;50.07;102312.30;1409087;100;21167;-52
2022/01/11 11:29:18;;;;;;;6.65;5.42;;;;;;;2.24;49.94;102298.53;1408863;101;21676;-51
2022/01/11 11:31:46;;;;;;;6.87;5.40;;;;;;;2.23;50.14;102299.34;1414441;100;21183;-51
2022/01/11 11:34:13;;;;;;;6.25;5.65;;;;;;;2.24;50.21;102304.95;1422880;100;21141;-52
2022/01/11 11:36:41;;;;;;;7.42;5.90;;;;;;;2.26;50.67;102305.48;1415501;100;21194;-52
2022/01/11 11:39:18;;;;;;;6.25;5.40;;;;;;;2.29;51.12;102304.69;1416123;100;21179;-54